KMWO/MWO METAR and TAF weather

Enter ICAO airport designator
Station Type Date Time Source
KMWO METAR 2019/10/15 21:55 UTC NOAA

KMWO 152155Z AUTO 25010KT 10SM CLR 23/11 A2985 RMK AO2 T02310106


Station Type Date Time Source
KMWO Decoded METAR 2019/10/15 21:55 UTC NOAA

Station name not available
Oct 15, 2019 - 05:55 PM EDT / 2019.10.15 2155 UTC
Wind: from the WSW (250 degrees) at 12 MPH (10 KT):0
Visibility: 10 mile(s):0
Sky conditions: clear
Temperature: 73.6 F (23.1 C)
Dew Point: 51.1 F (10.6 C)
Relative Humidity: 45%
Pressure (altimeter): 29.85 in. Hg (1010 hPa)
ob: KMWO 152155Z AUTO 25010KT 10SM CLR 23/11 A2985 RMK AO2 T02310106
cycle: 22

Station Type Date Time Source
KMWO TAF UTC NOAA

Error!

Example: see airport list